Time;durP1;ratioP1;P1;durP2;ratioP2;P2;SDS_P1;SDS_P2;PMS_P1;PMS_P2;Temp;Humidity;BMP_temperature;BMP_pressure;BME280_temperature;BME280_humidity;BME280_pressure;Samples;Min_cycle;Max_cycle;Signal;HPM_P1;HPM_P2
2023/10/16 00:01:31;;;;;;;;;;;21.90;50.20;;;;;;5076181;28;20403;-61
2023/10/16 00:04:00;;;;;;;;;;;21.90;50.20;;;;;;5076269;28;19924;-62
2023/10/16 00:06:28;;;;;;;;;;;21.90;50.20;;;;;;5076068;28;19991;-61
2023/10/16 00:09:14;;;;;;;;;;;21.90;50.20;;;;;;5076058;28;19970;-61
2023/10/16 00:11:41;;;;;;;;;;;21.90;50.20;;;;;;5091688;28;19977;-61
2023/10/16 00:14:25;;;;;;;;;;;21.90;50.30;;;;;;5096105;28;19971;-61
2023/10/16 00:16:53;;;;;;;;;;;21.90;50.30;;;;;;5095914;28;20646;-61
2023/10/16 00:19:20;;;;;;;;;;;21.90;50.30;;;;;;5096140;28;19959;-61
2023/10/16 00:21:47;;;;;;;;;;;21.80;50.20;;;;;;5096045;28;19962;-61
2023/10/16 00:24:15;;;;;;;;;;;21.90;50.30;;;;;;5095313;28;20031;-61
2023/10/16 00:26:49;;;;;;;;;;;21.90;50.30;;;;;;5095639;28;19924;-61
2023/10/16 00:29:22;;;;;;;;;;;21.90;50.30;;;;;;5096021;28;19952;-61
2023/10/16 00:31:51;;;;;;;;;;;21.90;50.30;;;;;;5095850;28;19931;-61
2023/10/16 00:34:19;;;;;;;;;;;21.80;50.30;;;;;;5095535;28;19924;-61
2023/10/16 00:36:53;;;;;;;;;;;21.80;50.30;;;;;;5095812;28;19931;-61
2023/10/16 00:39:25;;;;;;;;;;;21.90;50.40;;;;;;5095462;28;19924;-61
2023/10/16 00:41:53;;;;;;;;;;;21.90;50.40;;;;;;5095488;28;19930;-61
2023/10/16 00:44:22;;;;;;;;;;;21.90;50.40;;;;;;5095559;28;19924;-61
2023/10/16 00:46:50;;;;;;;;;;;21.90;50.50;;;;;;5095469;28;19931;-61
2023/10/16 00:49:18;;;;;;;;;;;21.90;50.50;;;;;;5074506;28;19924;-61
2023/10/16 00:51:46;;;;;;;;;;;21.90;50.50;;;;;;5075176;28;20005;-61
2023/10/16 00:54:19;;;;;;;;;;;21.80;50.50;;;;;;5074846;28;19935;-61
2023/10/16 00:56:47;;;;;;;;;;;21.80;50.50;;;;;;5075262;28;20295;-61
2023/10/16 00:59:17;;;;;;;;;;;21.80;50.40;;;;;;5075126;28;20300;-61
2023/10/16 01:01:45;;;;;;;;;;;21.90;50.40;;;;;;5074894;28;19932;-61
2023/10/16 01:04:13;;;;;;;;;;;21.80;50.30;;;;;;5074575;28;19925;-61
2023/10/16 01:06:41;;;;;;;;;;;21.80;50.30;;;;;;5074663;28;19924;-61
2023/10/16 01:09:08;;;;;;;;;;;21.80;50.30;;;;;;5074729;28;19932;-62
2023/10/16 01:11:39;;;;;;;;;;;21.80;50.30;;;;;;5074573;28;20357;-61
2023/10/16 01:14:06;;;;;;;;;;;21.80;50.30;;;;;;5074987;28;19924;-61
2023/10/16 01:16:33;;;;;;;;;;;21.80;50.50;;;;;;5074443;28;19936;-61
2023/10/16 01:19:01;;;;;;;;;;;21.80;50.30;;;;;;5074809;28;20269;-60
2023/10/16 01:21:28;;;;;;;;;;;21.80;50.40;;;;;;5074322;28;20009;-61
2023/10/16 01:23:55;;;;;;;;;;;21.80;50.40;;;;;;5074071;28;19924;-61
2023/10/16 01:26:24;;;;;;;;;;;21.80;50.40;;;;;;5074285;28;20452;-61
2023/10/16 01:28:54;;;;;;;;;;;21.80;50.40;;;;;;5074135;28;20019;-61
2023/10/16 01:31:21;;;;;;;;;;;21.80;50.40;;;;;;5074408;28;19924;-61
2023/10/16 01:33:51;;;;;;;;;;;21.80;50.40;;;;;;5074453;28;19929;-61
2023/10/16 01:36:18;;;;;;;;;;;21.80;50.50;;;;;;5073975;28;20388;-61
2023/10/16 01:38:45;;;;;;;;;;;21.80;50.40;;;;;;5074293;28;19925;-61
2023/10/16 01:41:18;;;;;;;;;;;21.80;50.50;;;;;;5074312;28;19924;-62
2023/10/16 01:43:45;;;;;;;;;;;21.80;50.50;;;;;;5073801;28;19967;-61
2023/10/16 01:46:13;;;;;;;;;;;21.70;50.40;;;;;;5073924;28;20007;-62
2023/10/16 01:48:41;;;;;;;;;;;21.70;50.40;;;;;;5073746;28;20305;-61
2023/10/16 01:51:15;;;;;;;;;;;21.70;51.00;;;;;;5073027;28;20339;-61
2023/10/16 01:53:43;;;;;;;;;;;21.70;50.40;;;;;;5073670;28;20019;-61
2023/10/16 01:56:13;;;;;;;;;;;21.70;50.40;;;;;;5074165;28;20003;-61
2023/10/16 01:58:44;;;;;;;;;;;21.70;50.50;;;;;;5074058;28;19928;-61
2023/10/16 02:01:12;;;;;;;;;;;21.70;50.50;;;;;;5073954;28;19929;-61
2023/10/16 02:03:45;;;;;;;;;;;21.70;50.50;;;;;;5073859;28;19930;-61
2023/10/16 02:06:12;;;;;;;;;;;21.70;50.50;;;;;;5073721;28;19928;-61
2023/10/16 02:08:40;;;;;;;;;;;21.70;50.60;;;;;;5073526;28;19963;-61
2023/10/16 02:11:07;;;;;;;;;;;21.70;50.60;;;;;;5073977;28;20047;-61
2023/10/16 02:13:35;;;;;;;;;;;21.70;50.60;;;;;;5072408;28;19928;-61
2023/10/16 02:16:03;;;;;;;;;;;21.70;50.60;;;;;;5073873;28;19962;-61
2023/10/16 02:18:36;;;;;;;;;;;21.70;50.60;;;;;;5073318;28;19929;-62
2023/10/16 02:21:04;;;;;;;;;;;21.70;50.60;;;;;;5073840;28;19954;-61
2023/10/16 02:23:31;;;;;;;;;;;21.70;50.60;;;;;;5073565;28;19975;-61
2023/10/16 02:26:01;;;;;;;;;;;21.70;50.60;;;;;;5073529;28;19925;-61
2023/10/16 02:28:31;;;;;;;;;;;21.70;50.60;;;;;;5073473;28;20007;-61
2023/10/16 02:31:16;;;;;;;;;;;21.70;50.50;;;;;;5078223;28;19970;-61
2023/10/16 02:33:46;;;;;;;;;;;21.80;50.50;;;;;;5073602;28;19931;-61
2023/10/16 02:36:13;;;;;;;;;;;21.70;50.40;;;;;;5080291;28;20027;-61
2023/10/16 02:38:42;;;;;;;;;;;21.70;50.40;;;;;;5080024;28;19924;-61
2023/10/16 02:41:09;;;;;;;;;;;21.70;50.40;;;;;;5079930;28;19924;-61
2023/10/16 02:43:45;;;;;;;;;;;21.70;50.40;;;;;;5080062;28;19967;-61
2023/10/16 02:46:19;;;;;;;;;;;21.70;50.40;;;;;;5079966;28;19972;-61
2023/10/16 02:48:47;;;;;;;;;;;21.70;50.40;;;;;;5079979;28;20331;-61
2023/10/16 02:51:16;;;;;;;;;;;21.70;50.40;;;;;;5078839;28;20373;-60
2023/10/16 02:53:43;;;;;;;;;;;21.70;50.40;;;;;;5080142;28;19924;-61
2023/10/16 02:56:15;;;;;;;;;;;21.70;50.40;;;;;;5080000;28;19965;-60
2023/10/16 02:58:55;;;;;;;;;;;21.70;50.40;;;;;;5080142;28;19972;-61
2023/10/16 03:01:22;;;;;;;;;;;21.70;50.50;;;;;;5079920;28;20054;-61
2023/10/16 03:03:50;;;;;;;;;;;21.70;50.40;;;;;;5080006;28;19925;-61
2023/10/16 03:06:20;;;;;;;;;;;21.70;50.50;;;;;;5079723;28;19924;-61
2023/10/16 03:08:48;;;;;;;;;;;21.70;50.50;;;;;;5079766;28;20454;-61
2023/10/16 03:11:15;;;;;;;;;;;21.60;50.40;;;;;;5079902;28;19971;-61
2023/10/16 03:13:47;;;;;;;;;;;21.70;50.50;;;;;;5079976;28;19925;-61
2023/10/16 03:16:26;;;;;;;;;;;21.70;50.50;;;;;;5079499;28;19932;-61
2023/10/16 03:19:09;;;;;;;;;;;21.60;50.50;;;;;;5079699;28;19978;-61
2023/10/16 03:21:39;;;;;;;;;;;21.60;50.50;;;;;;5079843;28;19930;-61
2023/10/16 03:24:09;;;;;;;;;;;21.60;50.50;;;;;;5086258;28;19928;-61
2023/10/16 03:26:42;;;;;;;;;;;21.60;50.50;;;;;;5089931;28;20201;-61
2023/10/16 03:29:10;;;;;;;;;;;21.60;50.60;;;;;;5079503;28;20377;-61
2023/10/16 03:31:39;;;;;;;;;;;21.60;50.60;;;;;;5079934;28;20408;-61
2023/10/16 03:34:11;;;;;;;;;;;21.60;50.60;;;;;;5079799;28;20351;-61
2023/10/16 03:36:40;;;;;;;;;;;21.60;50.60;;;;;;5079622;28;20023;-61
2023/10/16 03:39:11;;;;;;;;;;;21.60;50.60;;;;;;5079298;28;19924;-61
2023/10/16 03:41:39;;;;;;;;;;;21.60;50.70;;;;;;5079185;28;19925;-62
2023/10/16 03:44:14;;;;;;;;;;;21.60;50.70;;;;;;5079508;28;19924;-61
2023/10/16 03:46:41;;;;;;;;;;;21.60;50.70;;;;;;5076485;28;19928;-62
2023/10/16 03:49:09;;;;;;;;;;;21.60;50.70;;;;;;5076070;28;20007;-61
2023/10/16 03:51:36;;;;;;;;;;;21.60;50.70;;;;;;5076050;28;19928;-62
2023/10/16 03:54:03;;;;;;;;;;;21.60;50.70;;;;;;5076460;28;20011;-62
2023/10/16 03:56:33;;;;;;;;;;;21.60;50.70;;;;;;5075390;28;20292;-61
2023/10/16 03:59:00;;;;;;;;;;;21.60;50.60;;;;;;5075708;28;19924;-61
2023/10/16 04:01:30;;;;;;;;;;;21.60;50.50;;;;;;5075747;28;19930;-61
2023/10/16 04:03:57;;;;;;;;;;;21.60;50.50;;;;;;5075812;28;19924;-62
2023/10/16 04:06:25;;;;;;;;;;;21.60;50.40;;;;;;5075879;28;19970;-61
2023/10/16 04:08:53;;;;;;;;;;;21.60;50.40;;;;;;5076128;28;19978;-62
2023/10/16 04:11:21;;;;;;;;;;;21.60;50.40;;;;;;5075782;28;19924;-61
2023/10/16 04:13:48;;;;;;;;;;;21.60;50.40;;;;;;5074591;28;19968;-62
2023/10/16 04:16:30;;;;;;;;;;;21.60;50.50;;;;;;5075174;28;19928;-62
2023/10/16 04:21:54;;;;;;;;;;;21.60;50.50;;;;;;5074513;28;19967;-62
2023/10/16 04:24:40;;;;;;;;;;;21.60;50.50;;;;;;5075113;28;20381;-62
2023/10/16 04:35:51;;;;;;;;;;;21.50;50.40;;;;;;5075047;28;19947;-61
2023/10/16 04:46:54;;;;;;;;;;;21.50;50.10;;;;;;5095498;28;19976;-61
2023/10/16 04:49:14;;;;;;;;;;;21.50;50.00;;;;;;5094934;28;19924;-62
2023/10/16 04:51:52;;;;;;;;;;;21.50;49.90;;;;;;5095178;28;20332;-61
2023/10/16 05:02:41;;;;;;;;;;;21.40;49.60;;;;;;5081335;28;20001;-62
2023/10/16 05:11:23;;;;;;;;;;;21.40;49.50;;;;;;5085424;28;20014;-63
2023/10/16 05:13:39;;;;;;;;;;;21.40;49.50;;;;;;5074356;28;19963;-62
2023/10/16 05:19:03;;;;;;;;;;;21.40;49.80;;;;;;5076669;28;20037;-61
2023/10/16 06:14:34;;;;;;;;;;;22.10;48.70;;;;;;5075449;28;19932;-61
2023/10/16 06:17:15;;;;;;;;;;;22.10;48.70;;;;;;5079209;28;19932;-61
2023/10/16 06:19:43;;;;;;;;;;;22.10;48.70;;;;;;5079030;28;19985;-62
2023/10/16 06:22:10;;;;;;;;;;;22.20;48.60;;;;;;5073210;28;19928;-62
2023/10/16 06:24:44;;;;;;;;;;;22.20;48.40;;;;;;5073396;28;19928;-62
2023/10/16 06:27:19;;;;;;;;;;;22.20;48.20;;;;;;5075374;28;20595;-63
2023/10/16 06:29:50;;;;;;;;;;;22.20;48.10;;;;;;5075617;28;20035;-63
2023/10/16 06:32:19;;;;;;;;;;;22.30;48.00;;;;;;5072594;28;19932;-62
2023/10/16 06:34:47;;;;;;;;;;;22.30;47.80;;;;;;5074670;28;19928;-62
2023/10/16 06:37:18;;;;;;;;;;;22.40;47.80;;;;;;5075799;28;19932;-61
2023/10/16 06:39:46;;;;;;;;;;;22.40;47.60;;;;;;5075139;28;19928;-62
2023/10/16 06:42:20;;;;;;;;;;;22.40;47.40;;;;;;5072774;28;19932;-62
2023/10/16 06:44:50;;;;;;;;;;;22.50;47.10;;;;;;5071083;28;20019;-62
2023/10/16 06:47:23;;;;;;;;;;;22.40;46.90;;;;;;5068439;28;20364;-63
2023/10/16 06:49:51;;;;;;;;;;;22.50;46.70;;;;;;5072314;28;20034;-63
2023/10/16 06:52:18;;;;;;;;;;;22.50;46.70;;;;;;5075602;28;19955;-64
2023/10/16 06:54:45;;;;;;;;;;;22.50;46.60;;;;;;5074165;28;19929;-63
2023/10/16 06:57:12;;;;;;;;;;;22.60;46.70;;;;;;5078466;28;19928;-61
2023/10/16 06:59:40;;;;;;;;;;;22.60;46.50;;;;;;5074489;28;19975;-62
2023/10/16 07:02:19;;;;;;;;;;;22.60;46.50;;;;;;5069527;28;20009;-61
2023/10/16 07:04:47;;;;;;;;;;;22.70;46.40;;;;;;5071493;28;20446;-64
2023/10/16 07:07:14;;;;;;;;;;;22.70;46.40;;;;;;5072615;28;19928;-64
2023/10/16 07:09:47;;;;;;;;;;;22.70;46.30;;;;;;5073148;28;20379;-63
2023/10/16 07:12:16;;;;;;;;;;;22.70;46.20;;;;;;5080725;28;19928;-64
2023/10/16 07:14:44;;;;;;;;;;;22.80;46.30;;;;;;5071485;28;19929;-61
2023/10/16 07:17:13;;;;;;;;;;;22.80;46.20;;;;;;5082110;28;20014;-61
2023/10/16 07:19:41;;;;;;;;;;;22.80;46.00;;;;;;5082230;28;19935;-63
2023/10/16 07:22:10;;;;;;;;;;;22.80;45.90;;;;;;5070205;28;19924;-63
2023/10/16 07:24:37;;;;;;;;;;;22.90;45.90;;;;;;5071126;28;20348;-65
2023/10/16 07:27:12;;;;;;;;;;;22.80;45.80;;;;;;5075115;28;19924;-66
2023/10/16 07:29:41;;;;;;;;;;;22.90;45.60;;;;;;5075299;28;19924;-64
2023/10/16 07:32:08;;;;;;;;;;;22.90;46.00;;;;;;5075785;28;19925;-65
2023/10/16 07:34:36;;;;;;;;;;;22.90;45.30;;;;;;5073333;28;20020;-63
2023/10/16 07:37:07;;;;;;;;;;;23.00;45.20;;;;;;5076324;28;20017;-67
2023/10/16 07:39:35;;;;;;;;;;;23.00;45.30;;;;;;5076631;28;19928;-64
2023/10/16 07:42:02;;;;;;;;;;;23.00;45.40;;;;;;5077086;28;19928;-62
2023/10/16 07:44:29;;;;;;;;;;;23.00;45.40;;;;;;5078753;28;19959;-65
2023/10/16 07:46:58;;;;;;;;;;;23.00;45.40;;;;;;5079691;28;20476;-62
2023/10/16 07:49:26;;;;;;;;;;;23.00;45.90;;;;;;5083266;28;19932;-62
2023/10/16 07:51:54;;;;;;;;;;;23.00;45.30;;;;;;5085856;28;19981;-62
2023/10/16 07:54:22;;;;;;;;;;;23.10;45.30;;;;;;5076132;28;20330;-64
2023/10/16 07:56:50;;;;;;;;;;;23.10;45.10;;;;;;5076343;28;20324;-62
2023/10/16 07:59:21;;;;;;;;;;;23.10;45.10;;;;;;5074547;28;20466;-62
2023/10/16 08:01:57;;;;;;;;;;;23.10;44.90;;;;;;5078066;28;20376;-63
2023/10/16 08:04:34;;;;;;;;;;;23.10;44.60;;;;;;5079517;28;19924;-62
2023/10/16 08:07:08;;;;;;;;;;;23.10;44.40;;;;;;5080456;28;20011;-62
2023/10/16 08:09:48;;;;;;;;;;;23.10;44.30;;;;;;5079780;28;20400;-61
2023/10/16 08:12:19;;;;;;;;;;;23.10;44.10;;;;;;5076784;28;20028;-64
2023/10/16 08:14:46;;;;;;;;;;;23.10;44.60;;;;;;5074907;28;19924;-63
2023/10/16 08:17:14;;;;;;;;;;;23.20;44.00;;;;;;5075869;28;19925;-64
2023/10/16 08:19:44;;;;;;;;;;;23.20;43.90;;;;;;5080354;28;19928;-61
2023/10/16 08:22:14;;;;;;;;;;;23.20;43.70;;;;;;5075795;28;19963;-63
2023/10/16 08:24:43;;;;;;;;;;;23.20;43.60;;;;;;5072651;28;20018;-62
2023/10/16 08:27:39;;;;;;;;;;;23.20;43.90;;;;;;5076945;28;19932;-61
2023/10/16 08:30:17;;;;;;;;;;;23.30;44.10;;;;;;5078524;28;19963;-62
2023/10/16 08:35:21;;;;;;;;;;;23.30;44.10;;;;;;5076047;28;19932;-62
2023/10/16 08:37:58;;;;;;;;;;;23.30;43.90;;;;;;5075927;28;19925;-63
2023/10/16 08:40:32;;;;;;;;;;;23.30;43.90;;;;;;5075742;28;19932;-64
2023/10/16 08:43:00;;;;;;;;;;;23.30;43.90;;;;;;5073516;28;19947;-64
2023/10/16 08:45:32;;;;;;;;;;;23.40;43.90;;;;;;5072959;28;19951;-63
2023/10/16 08:48:05;;;;;;;;;;;23.40;43.70;;;;;;5075618;28;20022;-63
2023/10/16 08:50:44;;;;;;;;;;;23.40;43.60;;;;;;5075303;28;19978;-62
2023/10/16 08:53:30;;;;;;;;;;;23.40;43.70;;;;;;5071762;28;19962;-65
2023/10/16 08:55:59;;;;;;;;;;;23.40;44.20;;;;;;5077546;28;20288;-63
2023/10/16 08:58:26;;;;;;;;;;;23.50;43.80;;;;;;5076043;28;20265;-63
2023/10/16 09:00:53;;;;;;;;;;;23.50;43.60;;;;;;5074865;28;19925;-63
2023/10/16 09:03:22;;;;;;;;;;;23.50;43.50;;;;;;5072607;28;19931;-63
2023/10/16 09:05:51;;;;;;;;;;;23.50;43.40;;;;;;5075404;28;19984;-64
2023/10/16 09:08:18;;;;;;;;;;;23.50;43.20;;;;;;5068590;28;20034;-62
2023/10/16 09:10:47;;;;;;;;;;;23.60;43.20;;;;;;5076589;28;20338;-63
2023/10/16 09:13:16;;;;;;;;;;;23.60;43.00;;;;;;5076164;28;20390;-62
2023/10/16 09:15:46;;;;;;;;;;;23.60;42.80;;;;;;5074446;28;19974;-63
2023/10/16 09:18:16;;;;;;;;;;;23.50;42.40;;;;;;5075529;28;20015;-63
2023/10/16 09:20:44;;;;;;;;;;;23.50;42.10;;;;;;5076923;28;19924;-64
2023/10/16 09:23:14;;;;;;;;;;;23.60;42.20;;;;;;5075159;28;19924;-63
2023/10/16 09:25:44;;;;;;;;;;;23.60;42.20;;;;;;5077568;28;20364;-63
2023/10/16 09:28:18;;;;;;;;;;;23.50;42.10;;;;;;5074484;28;19924;-64
2023/10/16 09:30:47;;;;;;;;;;;23.60;42.20;;;;;;5073057;28;20013;-62
2023/10/16 09:33:27;;;;;;;;;;;23.50;42.10;;;;;;5075708;28;19936;-61
2023/10/16 09:36:00;;;;;;;;;;;23.60;42.20;;;;;;5075043;28;20117;-62
2023/10/16 09:38:33;;;;;;;;;;;23.60;42.20;;;;;;5076755;28;19951;-62
2023/10/16 09:43:56;;;;;;;;;;;23.60;42.10;;;;;;5078040;28;19996;-59
2023/10/16 09:49:15;;;;;;;;;;;23.60;41.70;;;;;;5072123;28;20004;-61
2023/10/16 09:51:45;;;;;;;;;;;23.60;41.60;;;;;;5080259;28;19923;-61
2023/10/16 09:54:15;;;;;;;;;;;23.60;41.60;;;;;;5079708;28;20292;-61
2023/10/16 09:56:44;;;;;;;;;;;23.60;41.50;;;;;;5075155;28;19930;-61
2023/10/16 09:59:22;;;;;;;;;;;23.60;41.60;;;;;;5074664;28;20017;-63
2023/10/16 10:01:51;;;;;;;;;;;23.60;41.60;;;;;;5078593;28;19939;-62
2023/10/16 10:04:24;;;;;;;;;;;23.70;41.50;;;;;;5082478;28;19924;-62
2023/10/16 10:06:54;;;;;;;;;;;23.70;41.50;;;;;;5072135;28;19938;-63
2023/10/16 10:09:31;;;;;;;;;;;23.70;41.40;;;;;;5080697;28;19928;-64
2023/10/16 10:12:13;;;;;;;;;;;23.70;41.40;;;;;;5077390;28;20015;-63
2023/10/16 10:15:01;;;;;;;;;;;23.70;41.40;;;;;;5078455;28;20325;-63
2023/10/16 10:17:28;;;;;;;;;;;23.70;41.20;;;;;;5077850;28;19986;-61
2023/10/16 10:19:55;;;;;;;;;;;23.70;41.00;;;;;;5079437;28;19935;-61
2023/10/16 10:22:27;;;;;;;;;;;23.70;40.70;;;;;;5075005;28;20448;-62
2023/10/16 10:25:17;;;;;;;;;;;23.70;40.60;;;;;;5073110;28;20323;-63
2023/10/16 10:27:47;;;;;;;;;;;23.70;40.70;;;;;;5073520;28;19924;-63
2023/10/16 10:30:17;;;;;;;;;;;23.70;40.80;;;;;;5076843;28;20440;-63
2023/10/16 10:32:55;;;;;;;;;;;23.80;40.80;;;;;;5080722;28;19923;-63
2023/10/16 10:35:38;;;;;;;;;;;23.80;40.60;;;;;;5079873;28;19939;-68
2023/10/16 10:38:20;;;;;;;;;;;23.80;40.60;;;;;;5075769;28;19924;-64
2023/10/16 10:41:10;;;;;;;;;;;23.80;40.40;;;;;;5076135;28;19935;-64
2023/10/16 10:43:44;;;;;;;;;;;23.80;40.60;;;;;;5077663;28;20018;-60
2023/10/16 10:46:11;;;;;;;;;;;23.80;40.30;;;;;;5069546;28;19928;-60
2023/10/16 10:48:39;;;;;;;;;;;23.80;40.10;;;;;;5075372;28;19934;-61
2023/10/16 10:51:13;;;;;;;;;;;23.80;40.20;;;;;;5062298;28;19932;-61
2023/10/16 10:53:53;;;;;;;;;;;23.80;40.50;;;;;;5076396;28;19924;-60
2023/10/16 10:56:21;;;;;;;;;;;23.80;40.60;;;;;;5075880;28;20300;-62
2023/10/16 10:58:48;;;;;;;;;;;23.80;40.70;;;;;;5080902;28;19928;-62
2023/10/16 11:01:26;;;;;;;;;;;23.90;40.90;;;;;;5078943;28;20365;-60
2023/10/16 11:03:55;;;;;;;;;;;23.90;40.90;;;;;;5061431;28;19924;-66
2023/10/16 11:06:39;;;;;;;;;;;23.90;40.70;;;;;;5079156;28;19924;-63
2023/10/16 11:09:12;;;;;;;;;;;23.90;40.70;;;;;;5079701;28;20007;-63
2023/10/16 11:11:39;;;;;;;;;;;23.90;40.30;;;;;;5074951;28;19928;-64
2023/10/16 11:14:07;;;;;;;;;;;24.00;40.20;;;;;;5069813;28;19972;-63
2023/10/16 11:16:43;;;;;;;;;;;24.00;40.30;;;;;;5081405;28;19967;-64
2023/10/16 11:19:11;;;;;;;;;;;24.00;40.30;;;;;;5080619;28;19972;-63
2023/10/16 11:21:47;;;;;;;;;;;24.00;40.20;;;;;;5080614;28;20019;-67
2023/10/16 11:24:17;;;;;;;;;;;24.00;40.30;;;;;;5078819;28;20334;-64
2023/10/16 11:26:46;;;;;;;;;;;24.10;40.40;;;;;;5075233;28;19975;-63
2023/10/16 11:29:13;;;;;;;;;;;24.10;40.30;;;;;;5078268;28;20424;-63
2023/10/16 11:31:44;;;;;;;;;;;24.10;40.40;;;;;;5085223;28;20381;-65
2023/10/16 11:34:14;;;;;;;;;;;24.10;40.30;;;;;;5075606;28;19932;-64
2023/10/16 11:36:50;;;;;;;;;;;24.10;40.30;;;;;;5075928;28;19969;-69
2023/10/16 11:39:21;;;;;;;;;;;24.10;40.20;;;;;;5081694;28;20038;-67
2023/10/16 11:41:48;;;;;;;;;;;24.10;40.10;;;;;;5075771;28;19974;-64
2023/10/16 11:44:16;;;;;;;;;;;24.10;40.10;;;;;;5074036;28;20398;-63
2023/10/16 11:46:51;;;;;;;;;;;24.20;40.20;;;;;;5081156;28;20380;-62
2023/10/16 11:49:29;;;;;;;;;;;24.20;39.80;;;;;;5079148;28;19975;-66
2023/10/16 11:52:08;;;;;;;;;;;24.20;39.60;;;;;;5074298;28;19978;-63
2023/10/16 11:54:40;;;;;;;;;;;24.20;39.50;;;;;;5094517;28;20004;-63
2023/10/16 11:57:13;;;;;;;;;;;24.20;39.10;;;;;;5078622;28;19956;-62
2023/10/16 11:59:40;;;;;;;;;;;24.20;39.50;;;;;;5069986;28;19924;-63
2023/10/16 12:02:11;;;;;;;;;;;24.20;39.40;;;;;;5070596;28;19931;-62
2023/10/16 12:04:40;;;;;;;;;;;24.20;39.20;;;;;;5074792;28;19933;-63
2023/10/16 12:07:09;;;;;;;;;;;24.20;39.00;;;;;;5077572;28;19939;-62
2023/10/16 12:09:42;;;;;;;;;;;24.10;39.10;;;;;;5075132;28;19937;-62
2023/10/16 12:12:19;;;;;;;;;;;24.20;38.70;;;;;;5073042;28;19990;-62
2023/10/16 12:14:48;;;;;;;;;;;24.20;38.70;;;;;;5079632;28;19932;-63
2023/10/16 12:17:19;;;;;;;;;;;24.10;38.80;;;;;;5069355;28;19928;-61
2023/10/16 12:19:46;;;;;;;;;;;24.20;38.60;;;;;;5072345;28;19924;-65
2023/10/16 12:22:20;;;;;;;;;;;24.20;38.70;;;;;;5078305;28;20380;-63
2023/10/16 12:24:48;;;;;;;;;;;24.20;38.80;;;;;;5078209;28;19932;-63
2023/10/16 12:27:16;;;;;;;;;;;24.20;38.90;;;;;;5074123;28;19932;-62
2023/10/16 12:29:44;;;;;;;;;;;24.20;39.00;;;;;;5074050;28;19936;-63
2023/10/16 12:32:12;;;;;;;;;;;24.20;39.10;;;;;;5073615;28;20502;-62
2023/10/16 12:34:41;;;;;;;;;;;24.20;39.20;;;;;;5079523;28;19933;-62
2023/10/16 12:37:09;;;;;;;;;;;24.20;39.20;;;;;;5076017;28;19932;-62
2023/10/16 12:39:45;;;;;;;;;;;24.20;39.00;;;;;;5075751;28;19967;-62
2023/10/16 12:42:13;;;;;;;;;;;24.20;38.80;;;;;;5076350;28;19942;-64
2023/10/16 12:44:41;;;;;;;;;;;24.30;38.80;;;;;;5073741;28;19931;-64
2023/10/16 12:47:08;;;;;;;;;;;24.20;38.80;;;;;;5071410;28;19971;-64
2023/10/16 12:49:35;;;;;;;;;;;24.20;38.60;;;;;;5074247;28;20372;-63
2023/10/16 12:52:02;;;;;;;;;;;24.30;38.60;;;;;;5070877;28;19924;-64
2023/10/16 12:54:30;;;;;;;;;;;24.30;38.50;;;;;;5074774;28;20373;-61
2023/10/16 12:56:57;;;;;;;;;;;24.30;38.40;;;;;;5074761;28;20371;-62
2023/10/16 12:59:26;;;;;;;;;;;24.30;38.70;;;;;;5078053;28;19967;-61
2023/10/16 13:01:53;;;;;;;;;;;24.30;38.80;;;;;;5075914;28;19968;-63
2023/10/16 13:04:24;;;;;;;;;;;24.30;38.90;;;;;;5077493;28;19932;-63
2023/10/16 13:06:52;;;;;;;;;;;24.30;38.70;;;;;;5074366;28;20292;-61
2023/10/16 13:09:19;;;;;;;;;;;24.40;38.80;;;;;;5075029;28;19959;-62
2023/10/16 13:11:46;;;;;;;;;;;24.30;38.70;;;;;;5071310;28;19924;-63
2023/10/16 13:14:13;;;;;;;;;;;24.40;38.80;;;;;;5078142;28;20161;-62
2023/10/16 13:16:53;;;;;;;;;;;24.40;38.70;;;;;;5075163;28;20022;-63
2023/10/16 13:19:22;;;;;;;;;;;24.40;38.50;;;;;;5074931;28;20330;-67
2023/10/16 13:21:52;;;;;;;;;;;24.40;38.20;;;;;;5071707;28;20416;-67
2023/10/16 13:24:23;;;;;;;;;;;24.30;37.70;;;;;;5074590;28;19932;-65
2023/10/16 13:26:52;;;;;;;;;;;24.40;37.70;;;;;;5071507;28;19924;-66
2023/10/16 13:29:20;;;;;;;;;;;24.40;37.10;;;;;;5076821;28;20330;-66
2023/10/16 13:31:48;;;;;;;;;;;24.40;36.70;;;;;;5077197;28;19959;-62
2023/10/16 13:34:16;;;;;;;;;;;24.40;37.00;;;;;;5072124;28;19924;-62
2023/10/16 13:37:01;;;;;;;;;;;24.40;37.40;;;;;;5073619;28;20375;-62
2023/10/16 13:39:33;;;;;;;;;;;24.40;37.60;;;;;;5076337;28;20465;-63
2023/10/16 13:42:00;;;;;;;;;;;24.40;37.60;;;;;;5072448;28;19924;-62
2023/10/16 13:44:29;;;;;;;;;;;24.40;37.80;;;;;;5081171;28;19924;-61
2023/10/16 13:46:59;;;;;;;;;;;24.40;37.90;;;;;;5078193;28;20018;-61
2023/10/16 13:49:28;;;;;;;;;;;24.40;37.90;;;;;;5073766;28;20342;-61
2023/10/16 13:51:56;;;;;;;;;;;24.40;37.80;;;;;;5075511;28;20015;-61
2023/10/16 13:54:23;;;;;;;;;;;24.40;37.80;;;;;;5073255;28;19931;-62
2023/10/16 13:56:51;;;;;;;;;;;24.40;37.70;;;;;;5077880;28;20285;-64
2023/10/16 13:59:18;;;;;;;;;;;24.40;37.80;;;;;;5075664;28;20013;-64
2023/10/16 14:01:46;;;;;;;;;;;24.40;37.80;;;;;;5072929;28;19932;-62
2023/10/16 14:04:14;;;;;;;;;;;24.40;37.70;;;;;;5069027;28;19929;-61
2023/10/16 14:06:43;;;;;;;;;;;24.50;37.70;;;;;;5076278;28;20014;-62
2023/10/16 14:09:17;;;;;;;;;;;24.50;37.80;;;;;;5079735;28;19924;-63
2023/10/16 14:11:47;;;;;;;;;;;24.40;37.70;;;;;;5075099;28;19971;-61
2023/10/16 14:14:19;;;;;;;;;;;24.40;37.60;;;;;;5072128;28;19935;-61
2023/10/16 14:16:51;;;;;;;;;;;24.50;37.90;;;;;;5070061;28;19978;-61
2023/10/16 14:19:22;;;;;;;;;;;24.50;37.90;;;;;;5076234;28;19939;-62
2023/10/16 14:21:54;;;;;;;;;;;24.50;37.90;;;;;;5076279;28;20027;-63
2023/10/16 14:24:24;;;;;;;;;;;24.50;37.90;;;;;;5088828;28;19929;-62
2023/10/16 14:26:54;;;;;;;;;;;24.50;38.00;;;;;;5069381;28;20396;-62
2023/10/16 14:29:24;;;;;;;;;;;24.40;38.00;;;;;;5075832;28;20006;-66
2023/10/16 14:31:55;;;;;;;;;;;24.50;38.10;;;;;;5075398;28;19928;-61
2023/10/16 14:34:22;;;;;;;;;;;24.50;38.30;;;;;;5077816;28;20358;-63
2023/10/16 14:36:53;;;;;;;;;;;24.50;38.50;;;;;;5079836;28;20335;-63
2023/10/16 14:39:23;;;;;;;;;;;24.50;38.60;;;;;;5074362;28;19932;-62
2023/10/16 14:41:50;;;;;;;;;;;24.50;38.70;;;;;;5081959;28;19931;-61
2023/10/16 14:44:20;;;;;;;;;;;24.50;38.70;;;;;;5090638;28;19924;-61
2023/10/16 14:46:51;;;;;;;;;;;24.50;38.70;;;;;;5091881;28;19924;-61
2023/10/16 14:49:19;;;;;;;;;;;24.50;38.80;;;;;;5089793;28;19951;-62
2023/10/16 14:51:46;;;;;;;;;;;24.40;38.70;;;;;;5103492;28;19928;-59
2023/10/16 14:54:14;;;;;;;;;;;24.50;38.90;;;;;;5106789;28;19924;-60
2023/10/16 14:56:44;;;;;;;;;;;24.50;39.10;;;;;;5091613;28;19928;-60
2023/10/16 14:59:14;;;;;;;;;;;24.50;39.20;;;;;;5073653;28;20395;-60
2023/10/16 15:01:43;;;;;;;;;;;24.50;39.30;;;;;;5090264;28;19929;-60
2023/10/16 15:04:11;;;;;;;;;;;24.40;39.30;;;;;;5097954;28;19931;-60
2023/10/16 15:06:38;;;;;;;;;;;24.50;39.50;;;;;;5109895;28;20383;-60
2023/10/16 15:09:09;;;;;;;;;;;24.40;39.70;;;;;;5091249;28;19928;-60
2023/10/16 15:11:38;;;;;;;;;;;24.40;39.80;;;;;;5086103;28;19971;-60
2023/10/16 15:14:05;;;;;;;;;;;24.40;40.00;;;;;;5073281;28;19932;-60
2023/10/16 15:16:32;;;;;;;;;;;24.40;40.20;;;;;;5084174;28;20329;-59
2023/10/16 15:19:01;;;;;;;;;;;24.40;40.80;;;;;;5082695;28;19951;-60
2023/10/16 15:21:28;;;;;;;;;;;24.40;41.20;;;;;;5086668;28;19931;-61
2023/10/16 15:23:56;;;;;;;;;;;24.40;41.30;;;;;;5075986;28;19976;-60
2023/10/16 15:26:23;;;;;;;;;;;24.30;41.20;;;;;;5083865;28;20319;-61
2023/10/16 15:28:52;;;;;;;;;;;24.40;41.40;;;;;;5084595;28;20015;-63
2023/10/16 15:31:19;;;;;;;;;;;24.40;41.60;;;;;;5084842;28;19936;-62
2023/10/16 15:33:47;;;;;;;;;;;24.30;41.80;;;;;;5098050;28;19924;-63
2023/10/16 15:36:17;;;;;;;;;;;24.40;41.90;;;;;;5089021;28;19964;-61
2023/10/16 15:38:46;;;;;;;;;;;24.30;41.80;;;;;;5072657;28;19993;-63
2023/10/16 15:41:13;;;;;;;;;;;24.30;42.50;;;;;;5089598;28;19932;-62
2023/10/16 15:43:40;;;;;;;;;;;24.30;43.00;;;;;;5074914;28;19944;-62
2023/10/16 15:46:30;;;;;;;;;;;24.30;43.80;;;;;;5095389;28;19930;-62
2023/10/16 15:48:59;;;;;;;;;;;24.20;44.80;;;;;;5095836;28;20416;-62
2023/10/16 15:51:30;;;;;;;;;;;24.10;44.90;;;;;;5092478;28;19967;-62
2023/10/16 15:53:58;;;;;;;;;;;24.10;44.60;;;;;;5094761;28;20422;-62
2023/10/16 15:56:26;;;;;;;;;;;24.10;44.30;;;;;;5095496;28;19924;-62
2023/10/16 15:58:55;;;;;;;;;;;24.00;43.80;;;;;;5095541;28;19928;-62
2023/10/16 16:01:25;;;;;;;;;;;24.00;43.60;;;;;;5096187;28;19967;-63
2023/10/16 16:03:57;;;;;;;;;;;23.90;43.50;;;;;;5092405;28;20404;-64
2023/10/16 16:06:32;;;;;;;;;;;23.90;43.40;;;;;;5074797;28;19928;-63
2023/10/16 16:09:01;;;;;;;;;;;23.80;43.40;;;;;;5085144;28;19932;-62
2023/10/16 16:11:29;;;;;;;;;;;23.80;43.50;;;;;;5085622;28;19924;-60
2023/10/16 16:13:56;;;;;;;;;;;23.80;43.60;;;;;;5075304;28;20381;-60